sensor_id;sensor_type;location;lat;lon;timestamp;P1;durP1;ratioP1;P2;durP2;ratioP2
4889;SDS011;2459;42.268;23.112;2023-06-04T00:01:18;15.90;;;10.40;;
4889;SDS011;2459;42.268;23.112;2023-06-04T00:03:45;17.13;;;10.73;;
4889;SDS011;2459;42.268;23.112;2023-06-04T00:06:13;15.00;;;10.03;;
4889;SDS011;2459;42.268;23.112;2023-06-04T00:08:39;13.90;;;8.83;;
4889;SDS011;2459;42.268;23.112;2023-06-04T00:11:06;10.90;;;8.73;;
4889;SDS011;2459;42.268;23.112;2023-06-04T00:13:32;13.13;;;10.60;;
4889;SDS011;2459;42.268;23.112;2023-06-04T00:15:58;20.67;;;10.30;;
4889;SDS011;2459;42.268;23.112;2023-06-04T00:18:25;21.10;;;10.83;;
4889;SDS011;2459;42.268;23.112;2023-06-04T00:20:51;18.17;;;10.07;;
4889;SDS011;2459;42.268;23.112;2023-06-04T00:23:19;14.70;;;10.70;;
4889;SDS011;2459;42.268;23.112;2023-06-04T00:25:46;12.20;;;9.07;;
4889;SDS011;2459;42.268;23.112;2023-06-04T00:28:12;16.80;;;9.07;;
4889;SDS011;2459;42.268;23.112;2023-06-04T00:30:38;12.40;;;8.77;;
4889;SDS011;2459;42.268;23.112;2023-06-04T00:33:05;14.60;;;8.60;;
4889;SDS011;2459;42.268;23.112;2023-06-04T00:35:31;12.87;;;9.20;;
4889;SDS011;2459;42.268;23.112;2023-06-04T00:37:58;13.80;;;9.30;;
4889;SDS011;2459;42.268;23.112;2023-06-04T00:40:25;18.97;;;9.53;;
4889;SDS011;2459;42.268;23.112;2023-06-04T00:42:52;15.60;;;8.70;;
4889;SDS011;2459;42.268;23.112;2023-06-04T00:45:20;15.27;;;9.20;;
4889;SDS011;2459;42.268;23.112;2023-06-04T00:47:50;16.23;;;10.10;;
4889;SDS011;2459;42.268;23.112;2023-06-04T00:50:17;11.20;;;7.60;;
4889;SDS011;2459;42.268;23.112;2023-06-04T00:52:45;18.23;;;8.07;;
4889;SDS011;2459;42.268;23.112;2023-06-04T00:55:12;15.53;;;9.63;;
4889;SDS011;2459;42.268;23.112;2023-06-04T00:57:40;13.17;;;8.47;;
4889;SDS011;2459;42.268;23.112;2023-06-04T01:00:07;11.30;;;8.50;;
4889;SDS011;2459;42.268;23.112;2023-06-04T01:02:34;12.13;;;9.23;;
4889;SDS011;2459;42.268;23.112;2023-06-04T01:05:02;13.63;;;8.60;;
4889;SDS011;2459;42.268;23.112;2023-06-04T01:07:30;23.20;;;8.90;;
4889;SDS011;2459;42.268;23.112;2023-06-04T01:09:57;11.73;;;9.00;;
4889;SDS011;2459;42.268;23.112;2023-06-04T01:12:23;16.30;;;9.17;;
4889;SDS011;2459;42.268;23.112;2023-06-04T01:14:51;37.57;;;10.03;;
4889;SDS011;2459;42.268;23.112;2023-06-04T01:17:19;14.20;;;9.50;;
4889;SDS011;2459;42.268;23.112;2023-06-04T01:20:02;16.47;;;9.53;;
4889;SDS011;2459;42.268;23.112;2023-06-04T01:22:33;18.53;;;8.20;;
4889;SDS011;2459;42.268;23.112;2023-06-04T01:25:02;15.17;;;8.80;;
4889;SDS011;2459;42.268;23.112;2023-06-04T01:27:28;14.00;;;9.00;;
4889;SDS011;2459;42.268;23.112;2023-06-04T01:29:58;11.40;;;8.80;;
4889;SDS011;2459;42.268;23.112;2023-06-04T01:32:25;13.13;;;9.57;;
4889;SDS011;2459;42.268;23.112;2023-06-04T01:34:52;20.23;;;9.30;;
4889;SDS011;2459;42.268;23.112;2023-06-04T01:37:18;14.63;;;7.97;;
4889;SDS011;2459;42.268;23.112;2023-06-04T01:39:45;17.43;;;9.50;;
4889;SDS011;2459;42.268;23.112;2023-06-04T01:42:11;24.67;;;9.70;;
4889;SDS011;2459;42.268;23.112;2023-06-04T01:44:38;15.63;;;10.13;;
4889;SDS011;2459;42.268;23.112;2023-06-04T01:47:05;13.30;;;8.67;;
4889;SDS011;2459;42.268;23.112;2023-06-04T01:49:32;15.90;;;9.13;;
4889;SDS011;2459;42.268;23.112;2023-06-04T01:51:58;11.00;;;7.97;;
4889;SDS011;2459;42.268;23.112;2023-06-04T01:54:25;16.90;;;8.30;;
4889;SDS011;2459;42.268;23.112;2023-06-04T01:56:51;22.00;;;9.93;;
4889;SDS011;2459;42.268;23.112;2023-06-04T01:59:18;12.50;;;8.97;;
4889;SDS011;2459;42.268;23.112;2023-06-04T02:01:44;21.43;;;9.40;;
4889;SDS011;2459;42.268;23.112;2023-06-04T02:04:12;16.17;;;9.80;;
4889;SDS011;2459;42.268;23.112;2023-06-04T02:06:38;11.60;;;9.33;;
4889;SDS011;2459;42.268;23.112;2023-06-04T02:09:05;14.97;;;9.20;;
4889;SDS011;2459;42.268;23.112;2023-06-04T02:11:31;19.80;;;10.10;;
4889;SDS011;2459;42.268;23.112;2023-06-04T02:13:57;15.50;;;9.50;;
4889;SDS011;2459;42.268;23.112;2023-06-04T02:16:24;22.43;;;9.80;;
4889;SDS011;2459;42.268;23.112;2023-06-04T02:18:50;14.10;;;9.40;;
4889;SDS011;2459;42.268;23.112;2023-06-04T02:21:18;12.90;;;9.13;;
4889;SDS011;2459;42.268;23.112;2023-06-04T02:23:45;13.63;;;9.67;;
4889;SDS011;2459;42.268;23.112;2023-06-04T02:26:14;12.70;;;9.23;;
4889;SDS011;2459;42.268;23.112;2023-06-04T02:28:41;18.83;;;10.17;;
4889;SDS011;2459;42.268;23.112;2023-06-04T02:31:07;16.83;;;10.33;;
4889;SDS011;2459;42.268;23.112;2023-06-04T02:33:34;15.23;;;10.00;;
4889;SDS011;2459;42.268;23.112;2023-06-04T02:36:00;23.33;;;11.70;;
4889;SDS011;2459;42.268;23.112;2023-06-04T02:38:28;21.43;;;11.00;;
4889;SDS011;2459;42.268;23.112;2023-06-04T02:40:57;17.83;;;9.80;;
4889;SDS011;2459;42.268;23.112;2023-06-04T02:43:24;16.77;;;9.70;;
4889;SDS011;2459;42.268;23.112;2023-06-04T02:45:50;18.13;;;10.27;;
4889;SDS011;2459;42.268;23.112;2023-06-04T02:48:17;12.73;;;10.53;;
4889;SDS011;2459;42.268;23.112;2023-06-04T02:50:43;17.50;;;10.50;;
4889;SDS011;2459;42.268;23.112;2023-06-04T02:53:09;19.90;;;10.50;;
4889;SDS011;2459;42.268;23.112;2023-06-04T02:55:39;19.30;;;9.67;;
4889;SDS011;2459;42.268;23.112;2023-06-04T02:58:09;27.00;;;11.13;;
4889;SDS011;2459;42.268;23.112;2023-06-04T03:00:36;21.20;;;10.30;;
4889;SDS011;2459;42.268;23.112;2023-06-04T03:03:10;18.50;;;10.07;;
4889;SDS011;2459;42.268;23.112;2023-06-04T03:05:36;21.57;;;11.10;;
4889;SDS011;2459;42.268;23.112;2023-06-04T03:08:04;22.57;;;12.80;;
4889;SDS011;2459;42.268;23.112;2023-06-04T03:10:33;20.20;;;11.60;;
4889;SDS011;2459;42.268;23.112;2023-06-04T03:13:01;25.77;;;11.67;;
4889;SDS011;2459;42.268;23.112;2023-06-04T03:15:27;20.93;;;11.70;;
4889;SDS011;2459;42.268;23.112;2023-06-04T03:17:54;25.77;;;12.40;;
4889;SDS011;2459;42.268;23.112;2023-06-04T03:20:20;41.27;;;13.00;;
4889;SDS011;2459;42.268;23.112;2023-06-04T03:22:49;24.60;;;11.10;;
4889;SDS011;2459;42.268;23.112;2023-06-04T03:25:15;17.27;;;11.23;;
4889;SDS011;2459;42.268;23.112;2023-06-04T03:27:42;23.63;;;11.53;;
4889;SDS011;2459;42.268;23.112;2023-06-04T03:30:10;18.40;;;9.00;;
4889;SDS011;2459;42.268;23.112;2023-06-04T03:32:37;21.53;;;10.60;;
4889;SDS011;2459;42.268;23.112;2023-06-04T03:35:03;19.87;;;10.10;;
4889;SDS011;2459;42.268;23.112;2023-06-04T03:37:30;18.93;;;9.90;;
4889;SDS011;2459;42.268;23.112;2023-06-04T03:39:57;19.03;;;9.10;;
4889;SDS011;2459;42.268;23.112;2023-06-04T03:42:24;16.33;;;8.77;;
4889;SDS011;2459;42.268;23.112;2023-06-04T03:44:50;14.20;;;9.27;;
4889;SDS011;2459;42.268;23.112;2023-06-04T03:47:18;21.10;;;10.03;;
4889;SDS011;2459;42.268;23.112;2023-06-04T03:49:44;56.97;;;11.90;;
4889;SDS011;2459;42.268;23.112;2023-06-04T03:52:11;11.67;;;8.87;;
4889;SDS011;2459;42.268;23.112;2023-06-04T03:54:37;20.50;;;10.10;;
4889;SDS011;2459;42.268;23.112;2023-06-04T03:57:04;15.53;;;10.47;;
4889;SDS011;2459;42.268;23.112;2023-06-04T03:59:30;18.90;;;9.80;;
4889;SDS011;2459;42.268;23.112;2023-06-04T04:01:57;20.05;;;10.23;;
4889;SDS011;2459;42.268;23.112;2023-06-04T04:04:27;17.83;;;8.83;;
4889;SDS011;2459;42.268;23.112;2023-06-04T04:06:53;16.73;;;9.37;;
4889;SDS011;2459;42.268;23.112;2023-06-04T04:09:20;17.20;;;11.07;;
4889;SDS011;2459;42.268;23.112;2023-06-04T04:11:46;20.47;;;10.87;;
4889;SDS011;2459;42.268;23.112;2023-06-04T04:14:13;22.10;;;9.17;;
4889;SDS011;2459;42.268;23.112;2023-06-04T04:16:39;15.30;;;9.47;;
4889;SDS011;2459;42.268;23.112;2023-06-04T04:19:06;12.07;;;9.90;;
4889;SDS011;2459;42.268;23.112;2023-06-04T04:21:34;19.73;;;10.00;;
4889;SDS011;2459;42.268;23.112;2023-06-04T04:24:01;13.43;;;10.23;;
4889;SDS011;2459;42.268;23.112;2023-06-04T04:26:28;24.30;;;11.20;;
4889;SDS011;2459;42.268;23.112;2023-06-04T04:28:55;20.47;;;10.27;;
4889;SDS011;2459;42.268;23.112;2023-06-04T04:31:23;16.30;;;9.50;;
4889;SDS011;2459;42.268;23.112;2023-06-04T04:33:50;30.13;;;15.90;;
4889;SDS011;2459;42.268;23.112;2023-06-04T04:36:17;21.23;;;11.07;;
4889;SDS011;2459;42.268;23.112;2023-06-04T04:38:45;15.50;;;9.70;;
4889;SDS011;2459;42.268;23.112;2023-06-04T04:41:11;14.47;;;11.07;;
4889;SDS011;2459;42.268;23.112;2023-06-04T04:43:38;20.23;;;11.77;;
4889;SDS011;2459;42.268;23.112;2023-06-04T04:46:04;34.83;;;16.60;;
4889;SDS011;2459;42.268;23.112;2023-06-04T04:48:31;20.73;;;12.00;;
4889;SDS011;2459;42.268;23.112;2023-06-04T04:50:58;16.13;;;10.73;;
4889;SDS011;2459;42.268;23.112;2023-06-04T04:53:25;19.00;;;11.00;;
4889;SDS011;2459;42.268;23.112;2023-06-04T04:55:53;17.27;;;12.80;;
4889;SDS011;2459;42.268;23.112;2023-06-04T04:58:20;19.17;;;12.20;;
4889;SDS011;2459;42.268;23.112;2023-06-04T05:00:49;22.97;;;12.53;;
4889;SDS011;2459;42.268;23.112;2023-06-04T05:03:15;16.83;;;11.47;;
4889;SDS011;2459;42.268;23.112;2023-06-04T05:05:42;16.03;;;11.17;;
4889;SDS011;2459;42.268;23.112;2023-06-04T05:08:09;14.80;;;9.27;;
4889;SDS011;2459;42.268;23.112;2023-06-04T05:10:36;15.63;;;10.00;;
4889;SDS011;2459;42.268;23.112;2023-06-04T05:13:03;18.60;;;10.10;;
4889;SDS011;2459;42.268;23.112;2023-06-04T05:15:31;18.40;;;11.47;;
4889;SDS011;2459;42.268;23.112;2023-06-04T05:17:57;16.70;;;10.17;;
4889;SDS011;2459;42.268;23.112;2023-06-04T05:20:25;16.10;;;10.90;;
4889;SDS011;2459;42.268;23.112;2023-06-04T05:22:52;16.07;;;10.33;;
4889;SDS011;2459;42.268;23.112;2023-06-04T05:25:20;29.00;;;11.13;;
4889;SDS011;2459;42.268;23.112;2023-06-04T05:27:46;14.00;;;10.23;;
4889;SDS011;2459;42.268;23.112;2023-06-04T05:30:15;18.83;;;10.87;;
4889;SDS011;2459;42.268;23.112;2023-06-04T05:32:42;16.83;;;10.80;;
4889;SDS011;2459;42.268;23.112;2023-06-04T05:35:08;22.43;;;10.90;;
4889;SDS011;2459;42.268;23.112;2023-06-04T05:37:38;30.37;;;12.63;;
4889;SDS011;2459;42.268;23.112;2023-06-04T05:40:06;14.77;;;10.93;;
4889;SDS011;2459;42.268;23.112;2023-06-04T05:42:32;16.47;;;11.40;;
4889;SDS011;2459;42.268;23.112;2023-06-04T05:44:59;18.33;;;9.97;;
4889;SDS011;2459;42.268;23.112;2023-06-04T05:47:27;27.43;;;11.20;;
4889;SDS011;2459;42.268;23.112;2023-06-04T05:49:55;16.30;;;11.00;;
4889;SDS011;2459;42.268;23.112;2023-06-04T05:52:21;21.47;;;11.57;;
4889;SDS011;2459;42.268;23.112;2023-06-04T05:54:47;12.93;;;9.00;;
4889;SDS011;2459;42.268;23.112;2023-06-04T05:57:14;19.73;;;10.60;;
4889;SDS011;2459;42.268;23.112;2023-06-04T05:59:41;25.13;;;12.93;;
4889;SDS011;2459;42.268;23.112;2023-06-04T06:02:07;20.63;;;12.23;;
4889;SDS011;2459;42.268;23.112;2023-06-04T06:04:35;21.13;;;11.37;;
4889;SDS011;2459;42.268;23.112;2023-06-04T06:07:01;16.17;;;8.80;;
4889;SDS011;2459;42.268;23.112;2023-06-04T06:09:28;15.13;;;8.40;;
4889;SDS011;2459;42.268;23.112;2023-06-04T06:11:54;15.93;;;6.93;;
4889;SDS011;2459;42.268;23.112;2023-06-04T06:14:21;8.97;;;7.13;;
4889;SDS011;2459;42.268;23.112;2023-06-04T06:16:48;13.00;;;7.63;;
4889;SDS011;2459;42.268;23.112;2023-06-04T06:19:18;12.13;;;7.33;;
4889;SDS011;2459;42.268;23.112;2023-06-04T06:21:46;11.50;;;8.03;;
4889;SDS011;2459;42.268;23.112;2023-06-04T06:24:12;27.43;;;9.73;;
4889;SDS011;2459;42.268;23.112;2023-06-04T06:26:38;15.90;;;8.80;;
4889;SDS011;2459;42.268;23.112;2023-06-04T06:29:08;23.47;;;9.17;;
4889;SDS011;2459;42.268;23.112;2023-06-04T06:31:35;13.73;;;8.27;;
4889;SDS011;2459;42.268;23.112;2023-06-04T06:34:01;15.43;;;10.67;;
4889;SDS011;2459;42.268;23.112;2023-06-04T06:36:27;14.00;;;8.67;;
4889;SDS011;2459;42.268;23.112;2023-06-04T06:38:55;12.53;;;8.00;;
4889;SDS011;2459;42.268;23.112;2023-06-04T06:41:22;21.00;;;10.40;;
4889;SDS011;2459;42.268;23.112;2023-06-04T06:43:48;17.40;;;9.70;;
4889;SDS011;2459;42.268;23.112;2023-06-04T06:46:15;15.17;;;9.83;;
4889;SDS011;2459;42.268;23.112;2023-06-04T06:48:42;16.33;;;9.23;;
4889;SDS011;2459;42.268;23.112;2023-06-04T06:51:10;14.50;;;10.47;;
4889;SDS011;2459;42.268;23.112;2023-06-04T06:53:36;19.50;;;9.00;;
4889;SDS011;2459;42.268;23.112;2023-06-04T06:56:04;20.97;;;9.43;;
4889;SDS011;2459;42.268;23.112;2023-06-04T06:58:32;12.07;;;9.30;;
4889;SDS011;2459;42.268;23.112;2023-06-04T07:01:01;12.80;;;10.10;;
4889;SDS011;2459;42.268;23.112;2023-06-04T07:03:27;22.83;;;9.67;;
4889;SDS011;2459;42.268;23.112;2023-06-04T07:05:54;12.60;;;8.97;;
4889;SDS011;2459;42.268;23.112;2023-06-04T07:08:20;17.60;;;10.00;;
4889;SDS011;2459;42.268;23.112;2023-06-04T07:10:47;13.60;;;10.30;;
4889;SDS011;2459;42.268;23.112;2023-06-04T07:13:16;15.70;;;9.93;;
4889;SDS011;2459;42.268;23.112;2023-06-04T07:15:42;18.23;;;8.93;;
4889;SDS011;2459;42.268;23.112;2023-06-04T07:18:09;19.33;;;10.13;;
4889;SDS011;2459;42.268;23.112;2023-06-04T07:20:35;14.50;;;9.83;;
4889;SDS011;2459;42.268;23.112;2023-06-04T07:23:02;22.03;;;8.33;;
4889;SDS011;2459;42.268;23.112;2023-06-04T07:25:28;22.30;;;11.27;;
4889;SDS011;2459;42.268;23.112;2023-06-04T07:27:54;12.70;;;9.67;;
4889;SDS011;2459;42.268;23.112;2023-06-04T07:30:27;21.97;;;9.97;;
4889;SDS011;2459;42.268;23.112;2023-06-04T07:32:53;14.87;;;9.80;;
4889;SDS011;2459;42.268;23.112;2023-06-04T07:35:20;16.13;;;9.50;;
4889;SDS011;2459;42.268;23.112;2023-06-04T07:37:46;14.20;;;9.30;;
4889;SDS011;2459;42.268;23.112;2023-06-04T07:40:14;15.97;;;8.63;;
4889;SDS011;2459;42.268;23.112;2023-06-04T07:42:40;19.30;;;9.53;;
4889;SDS011;2459;42.268;23.112;2023-06-04T07:45:07;22.90;;;8.87;;
4889;SDS011;2459;42.268;23.112;2023-06-04T07:47:36;13.93;;;10.13;;
4889;SDS011;2459;42.268;23.112;2023-06-04T07:50:03;13.50;;;9.90;;
4889;SDS011;2459;42.268;23.112;2023-06-04T07:52:29;16.87;;;8.60;;
4889;SDS011;2459;42.268;23.112;2023-06-04T07:54:56;14.30;;;10.23;;
4889;SDS011;2459;42.268;23.112;2023-06-04T07:57:23;18.50;;;9.20;;
4889;SDS011;2459;42.268;23.112;2023-06-04T07:59:50;33.20;;;11.70;;
4889;SDS011;2459;42.268;23.112;2023-06-04T08:02:16;19.90;;;10.30;;
4889;SDS011;2459;42.268;23.112;2023-06-04T08:04:48;23.43;;;11.40;;
4889;SDS011;2459;42.268;23.112;2023-06-04T08:07:20;20.40;;;10.60;;
4889;SDS011;2459;42.268;23.112;2023-06-04T08:09:48;17.60;;;9.63;;
4889;SDS011;2459;42.268;23.112;2023-06-04T08:12:17;19.33;;;12.13;;
4889;SDS011;2459;42.268;23.112;2023-06-04T08:14:50;11.40;;;9.37;;
4889;SDS011;2459;42.268;23.112;2023-06-04T08:17:16;27.17;;;10.27;;
4889;SDS011;2459;42.268;23.112;2023-06-04T08:19:43;16.33;;;11.07;;
4889;SDS011;2459;42.268;23.112;2023-06-04T08:22:10;30.13;;;10.63;;
4889;SDS011;2459;42.268;23.112;2023-06-04T08:24:37;23.57;;;10.67;;
4889;SDS011;2459;42.268;23.112;2023-06-04T08:27:04;14.50;;;10.60;;
4889;SDS011;2459;42.268;23.112;2023-06-04T08:29:32;25.27;;;10.60;;
4889;SDS011;2459;42.268;23.112;2023-06-04T08:31:58;18.20;;;10.97;;
4889;SDS011;2459;42.268;23.112;2023-06-04T08:34:25;21.77;;;11.63;;
4889;SDS011;2459;42.268;23.112;2023-06-04T08:36:51;15.07;;;10.87;;
4889;SDS011;2459;42.268;23.112;2023-06-04T08:39:19;24.93;;;11.67;;
4889;SDS011;2459;42.268;23.112;2023-06-04T08:41:48;14.00;;;10.40;;
4889;SDS011;2459;42.268;23.112;2023-06-04T08:44:15;17.10;;;10.30;;
4889;SDS011;2459;42.268;23.112;2023-06-04T08:46:43;13.40;;;10.20;;
4889;SDS011;2459;42.268;23.112;2023-06-04T08:49:09;12.83;;;9.37;;
4889;SDS011;2459;42.268;23.112;2023-06-04T08:51:37;14.70;;;9.00;;
4889;SDS011;2459;42.268;23.112;2023-06-04T08:54:04;14.40;;;9.97;;
4889;SDS011;2459;42.268;23.112;2023-06-04T08:56:34;21.70;;;9.50;;
4889;SDS011;2459;42.268;23.112;2023-06-04T08:59:01;12.90;;;9.17;;
4889;SDS011;2459;42.268;23.112;2023-06-04T09:01:28;15.60;;;9.10;;
4889;SDS011;2459;42.268;23.112;2023-06-04T09:03:54;14.07;;;8.63;;
4889;SDS011;2459;42.268;23.112;2023-06-04T09:06:22;13.77;;;7.63;;
4889;SDS011;2459;42.268;23.112;2023-06-04T09:08:56;13.90;;;7.00;;
4889;SDS011;2459;42.268;23.112;2023-06-04T09:11:23;10.40;;;7.40;;
4889;SDS011;2459;42.268;23.112;2023-06-04T09:13:53;12.60;;;7.03;;
4889;SDS011;2459;42.268;23.112;2023-06-04T09:16:22;10.17;;;6.80;;
4889;SDS011;2459;42.268;23.112;2023-06-04T09:18:49;11.20;;;6.50;;
4889;SDS011;2459;42.268;23.112;2023-06-04T09:21:16;11.20;;;8.87;;
4889;SDS011;2459;42.268;23.112;2023-06-04T09:23:44;17.50;;;10.87;;
4889;SDS011;2459;42.268;23.112;2023-06-04T09:26:11;12.97;;;9.20;;
4889;SDS011;2459;42.268;23.112;2023-06-04T09:28:39;13.60;;;9.53;;
4889;SDS011;2459;42.268;23.112;2023-06-04T09:31:08;9.87;;;7.83;;
4889;SDS011;2459;42.268;23.112;2023-06-04T09:33:41;18.80;;;9.10;;
4889;SDS011;2459;42.268;23.112;2023-06-04T09:36:08;15.47;;;10.03;;
4889;SDS011;2459;42.268;23.112;2023-06-04T09:38:35;14.65;;;9.18;;
4889;SDS011;2459;42.268;23.112;2023-06-04T09:41:01;17.25;;;10.65;;
4889;SDS011;2459;42.268;23.112;2023-06-04T09:43:29;11.30;;;7.05;;
4889;SDS011;2459;42.268;23.112;2023-06-04T09:46:07;10.00;;;6.78;;
4889;SDS011;2459;42.268;23.112;2023-06-04T09:48:34;6.53;;;5.75;;
4889;SDS011;2459;42.268;23.112;2023-06-04T09:51:05;8.43;;;7.40;;
4889;SDS011;2459;42.268;23.112;2023-06-04T09:53:33;12.60;;;8.53;;
4889;SDS011;2459;42.268;23.112;2023-06-04T09:56:00;10.30;;;7.30;;
4889;SDS011;2459;42.268;23.112;2023-06-04T09:58:30;15.37;;;10.10;;
4889;SDS011;2459;42.268;23.112;2023-06-04T10:00:57;12.97;;;9.40;;
4889;SDS011;2459;42.268;23.112;2023-06-04T10:03:24;13.40;;;9.97;;
4889;SDS011;2459;42.268;23.112;2023-06-04T10:05:54;15.00;;;10.57;;
4889;SDS011;2459;42.268;23.112;2023-06-04T10:08:22;17.03;;;10.90;;
4889;SDS011;2459;42.268;23.112;2023-06-04T10:10:49;17.10;;;11.30;;
4889;SDS011;2459;42.268;23.112;2023-06-04T10:13:17;21.63;;;12.13;;
4889;SDS011;2459;42.268;23.112;2023-06-04T10:15:44;12.82;;;10.02;;
4889;SDS011;2459;42.268;23.112;2023-06-04T10:18:16;15.52;;;10.68;;
4889;SDS011;2459;42.268;23.112;2023-06-04T10:20:48;13.02;;;9.85;;
4889;SDS011;2459;42.268;23.112;2023-06-04T10:23:17;20.20;;;12.52;;
4889;SDS011;2459;42.268;23.112;2023-06-04T10:25:46;14.82;;;9.75;;
4889;SDS011;2459;42.268;23.112;2023-06-04T10:28:15;18.77;;;11.25;;
4889;SDS011;2459;42.268;23.112;2023-06-04T10:30:41;19.20;;;11.10;;
4889;SDS011;2459;42.268;23.112;2023-06-04T10:33:08;12.23;;;10.00;;
4889;SDS011;2459;42.268;23.112;2023-06-04T10:35:34;15.88;;;10.18;;
4889;SDS011;2459;42.268;23.112;2023-06-04T10:38:05;18.57;;;9.97;;
4889;SDS011;2459;42.268;23.112;2023-06-04T10:40:33;12.87;;;7.53;;
4889;SDS011;2459;42.268;23.112;2023-06-04T10:43:04;18.73;;;12.57;;
4889;SDS011;2459;42.268;23.112;2023-06-04T10:45:31;16.77;;;11.40;;
4889;SDS011;2459;42.268;23.112;2023-06-04T10:47:59;16.47;;;10.80;;
4889;SDS011;2459;42.268;23.112;2023-06-04T10:50:26;17.30;;;10.53;;
4889;SDS011;2459;42.268;23.112;2023-06-04T10:52:54;16.57;;;10.63;;
4889;SDS011;2459;42.268;23.112;2023-06-04T10:55:21;15.33;;;10.83;;
4889;SDS011;2459;42.268;23.112;2023-06-04T10:57:53;16.23;;;11.53;;
4889;SDS011;2459;42.268;23.112;2023-06-04T11:00:19;12.93;;;9.07;;
4889;SDS011;2459;42.268;23.112;2023-06-04T11:02:55;14.47;;;9.50;;
4889;SDS011;2459;42.268;23.112;2023-06-04T11:05:22;11.43;;;8.40;;
4889;SDS011;2459;42.268;23.112;2023-06-04T11:07:49;16.30;;;10.27;;
4889;SDS011;2459;42.268;23.112;2023-06-04T11:10:15;13.53;;;8.67;;
4889;SDS011;2459;42.268;23.112;2023-06-04T11:12:42;14.93;;;10.60;;
4889;SDS011;2459;42.268;23.112;2023-06-04T11:15:11;14.57;;;10.07;;
4889;SDS011;2459;42.268;23.112;2023-06-04T11:17:37;14.47;;;9.03;;
4889;SDS011;2459;42.268;23.112;2023-06-04T11:20:04;16.80;;;8.93;;
4889;SDS011;2459;42.268;23.112;2023-06-04T11:22:41;13.37;;;9.47;;
4889;SDS011;2459;42.268;23.112;2023-06-04T11:25:08;9.63;;;5.50;;
4889;SDS011;2459;42.268;23.112;2023-06-04T11:27:35;10.63;;;7.60;;
4889;SDS011;2459;42.268;23.112;2023-06-04T11:30:01;9.30;;;5.53;;
4889;SDS011;2459;42.268;23.112;2023-06-04T11:32:29;14.97;;;8.20;;
4889;SDS011;2459;42.268;23.112;2023-06-04T11:35:02;9.07;;;6.33;;
4889;SDS011;2459;42.268;23.112;2023-06-04T11:37:31;11.03;;;8.17;;
4889;SDS011;2459;42.268;23.112;2023-06-04T11:39:58;14.83;;;9.03;;
4889;SDS011;2459;42.268;23.112;2023-06-04T11:42:25;13.30;;;8.40;;
4889;SDS011;2459;42.268;23.112;2023-06-04T11:44:55;14.33;;;8.73;;
4889;SDS011;2459;42.268;23.112;2023-06-04T11:47:24;15.33;;;8.60;;
4889;SDS011;2459;42.268;23.112;2023-06-04T11:49:55;15.70;;;9.20;;
4889;SDS011;2459;42.268;23.112;2023-06-04T11:52:22;8.87;;;6.43;;
4889;SDS011;2459;42.268;23.112;2023-06-04T11:54:48;6.10;;;3.97;;
4889;SDS011;2459;42.268;23.112;2023-06-04T11:57:15;22.17;;;6.33;;
4889;SDS011;2459;42.268;23.112;2023-06-04T11:59:41;18.10;;;8.00;;
4889;SDS011;2459;42.268;23.112;2023-06-04T12:02:08;8.53;;;5.43;;
4889;SDS011;2459;42.268;23.112;2023-06-04T12:04:34;4.60;;;4.13;;
4889;SDS011;2459;42.268;23.112;2023-06-04T12:07:03;6.70;;;5.07;;
4889;SDS011;2459;42.268;23.112;2023-06-04T12:09:31;7.20;;;4.90;;
4889;SDS011;2459;42.268;23.112;2023-06-04T12:11:59;10.73;;;7.73;;
4889;SDS011;2459;42.268;23.112;2023-06-04T12:14:26;7.83;;;6.43;;
4889;SDS011;2459;42.268;23.112;2023-06-04T12:16:56;6.73;;;5.90;;
4889;SDS011;2459;42.268;23.112;2023-06-04T12:19:22;12.50;;;5.97;;
4889;SDS011;2459;42.268;23.112;2023-06-04T12:21:58;7.30;;;5.00;;
4889;SDS011;2459;42.268;23.112;2023-06-04T12:24:26;13.40;;;6.93;;
4889;SDS011;2459;42.268;23.112;2023-06-04T12:27:00;7.43;;;5.40;;
4889;SDS011;2459;42.268;23.112;2023-06-04T12:29:27;8.20;;;5.17;;
4889;SDS011;2459;42.268;23.112;2023-06-04T12:32:01;10.90;;;7.13;;
4889;SDS011;2459;42.268;23.112;2023-06-04T12:34:27;9.23;;;6.47;;
4889;SDS011;2459;42.268;23.112;2023-06-04T12:36:54;16.23;;;6.33;;
4889;SDS011;2459;42.268;23.112;2023-06-04T12:39:20;10.87;;;6.90;;
4889;SDS011;2459;42.268;23.112;2023-06-04T12:41:48;12.67;;;7.43;;
4889;SDS011;2459;42.268;23.112;2023-06-04T12:44:14;10.80;;;7.53;;
4889;SDS011;2459;42.268;23.112;2023-06-04T12:46:41;5.57;;;4.53;;
4889;SDS011;2459;42.268;23.112;2023-06-04T12:49:07;6.77;;;4.80;;
4889;SDS011;2459;42.268;23.112;2023-06-04T12:51:34;9.70;;;6.53;;
4889;SDS011;2459;42.268;23.112;2023-06-04T12:54:01;9.47;;;6.50;;
4889;SDS011;2459;42.268;23.112;2023-06-04T12:56:28;10.20;;;7.00;;
4889;SDS011;2459;42.268;23.112;2023-06-04T12:58:55;13.70;;;8.07;;
4889;SDS011;2459;42.268;23.112;2023-06-04T13:01:22;6.67;;;5.43;;
4889;SDS011;2459;42.268;23.112;2023-06-04T13:03:48;8.83;;;7.07;;
4889;SDS011;2459;42.268;23.112;2023-06-04T13:06:15;9.67;;;5.43;;
4889;SDS011;2459;42.268;23.112;2023-06-04T13:08:41;10.83;;;7.60;;
4889;SDS011;2459;42.268;23.112;2023-06-04T13:11:08;18.03;;;8.20;;
4889;SDS011;2459;42.268;23.112;2023-06-04T13:13:35;10.37;;;7.23;;
4889;SDS011;2459;42.268;23.112;2023-06-04T13:16:03;10.23;;;7.43;;
4889;SDS011;2459;42.268;23.112;2023-06-04T13:18:30;8.93;;;7.60;;
4889;SDS011;2459;42.268;23.112;2023-06-04T13:20:56;11.00;;;9.33;;
4889;SDS011;2459;42.268;23.112;2023-06-04T13:23:23;13.77;;;8.50;;
4889;SDS011;2459;42.268;23.112;2023-06-04T13:25:49;16.37;;;8.97;;
4889;SDS011;2459;42.268;23.112;2023-06-04T13:28:16;18.33;;;9.97;;
4889;SDS011;2459;42.268;23.112;2023-06-04T13:30:43;11.90;;;9.63;;
4889;SDS011;2459;42.268;23.112;2023-06-04T13:33:11;12.87;;;9.40;;
4889;SDS011;2459;42.268;23.112;2023-06-04T13:35:40;11.17;;;8.50;;
4889;SDS011;2459;42.268;23.112;2023-06-04T13:38:07;14.03;;;9.90;;
4889;SDS011;2459;42.268;23.112;2023-06-04T13:40:34;13.70;;;10.30;;
4889;SDS011;2459;42.268;23.112;2023-06-04T13:43:00;13.63;;;10.30;;
4889;SDS011;2459;42.268;23.112;2023-06-04T13:45:27;11.70;;;9.60;;
4889;SDS011;2459;42.268;23.112;2023-06-04T13:47:53;15.10;;;9.70;;
4889;SDS011;2459;42.268;23.112;2023-06-04T13:50:21;15.20;;;9.30;;
4889;SDS011;2459;42.268;23.112;2023-06-04T13:52:48;15.30;;;10.30;;
4889;SDS011;2459;42.268;23.112;2023-06-04T13:55:14;15.13;;;10.13;;
4889;SDS011;2459;42.268;23.112;2023-06-04T13:57:40;13.60;;;9.20;;
4889;SDS011;2459;42.268;23.112;2023-06-04T14:00:07;13.02;;;7.63;;
4889;SDS011;2459;42.268;23.112;2023-06-04T14:02:34;19.10;;;7.80;;
4889;SDS011;2459;42.268;23.112;2023-06-04T14:05:01;12.00;;;8.40;;
4889;SDS011;2459;42.268;23.112;2023-06-04T14:07:29;14.37;;;7.20;;
4889;SDS011;2459;42.268;23.112;2023-06-04T14:09:55;12.03;;;8.50;;
4889;SDS011;2459;42.268;23.112;2023-06-04T14:12:22;11.53;;;8.83;;
4889;SDS011;2459;42.268;23.112;2023-06-04T14:14:48;10.40;;;7.80;;
4889;SDS011;2459;42.268;23.112;2023-06-04T14:17:15;11.87;;;6.77;;
4889;SDS011;2459;42.268;23.112;2023-06-04T14:19:41;9.20;;;7.90;;
4889;SDS011;2459;42.268;23.112;2023-06-04T14:22:09;11.57;;;7.27;;
4889;SDS011;2459;42.268;23.112;2023-06-04T14:24:37;8.83;;;6.90;;
4889;SDS011;2459;42.268;23.112;2023-06-04T14:27:03;10.00;;;6.47;;
4889;SDS011;2459;42.268;23.112;2023-06-04T14:29:31;15.33;;;7.20;;
4889;SDS011;2459;42.268;23.112;2023-06-04T14:31:57;11.47;;;6.67;;
4889;SDS011;2459;42.268;23.112;2023-06-04T14:34:24;8.00;;;5.67;;
4889;SDS011;2459;42.268;23.112;2023-06-04T14:36:50;7.97;;;5.53;;
4889;SDS011;2459;42.268;23.112;2023-06-04T14:39:17;8.00;;;4.97;;
4889;SDS011;2459;42.268;23.112;2023-06-04T14:41:44;6.10;;;4.70;;
4889;SDS011;2459;42.268;23.112;2023-06-04T14:44:11;9.40;;;7.50;;